Cedar Hills, Utah
Current Conditions -  °F | °C
As of 6:55 AM on Saturday 20 Dec 2014 (Local Time) from KPVU Reporting Station
Broken Clouds Broken Clouds  
Wind Chill: 34°   Ceiling: 4400
Heat Index: 34°   Visibility: 10mi
Dew Point: 30°   Wind: 0mph
Humidity: 87%   Direction: NA
Pressure: 30.13"   Gusts: NA
Location:  40.3798°N, 111.741°W
Report Text: KPVU 201355Z AUTO 00000KT 10SM BKN044 01/M01 A3013 RMK AO1
Loading
Personal Weather Stations






























Interactive Weather Map New forecast layout! Learn more

10-Day Weather Forecast

Advertisements
Track Severe Weather on mobile